Detall de PIREP

Printer-friendly versionPDF version

[2014/05/01 07:49:00]
Flight IATA:CT3311
Pilot Number:012
Company ICAO:CAT
Aircraft Type:B763/F
PAX:238
Departing Airport: LLBG
Destination Airport: LEZG
Alternate Airport:LEBL
Online: VATSIM
Route:PURLA H1B SUVAS UL53 KAROL UM1 SIT UM978 DEMAG UP158 ELKAN UP167 ORTAP UQ789 NOTRI UM871
Flight Level:F350
No Slew and time accel
No pause
Crash detect
Detect pilot in Cockpit between each 30 and 45 minutes
07:49 Zero fuel Weight: 264036 Lbs, Fuel Weight: 74510 Lbs
07:49 VATSIM:LLBG 010720Z VRB03KT CAVOK 26/13 Q1013 NOSIG
07:49 VATSIM:LEZG 010730Z 31007KT 280V340 9999 FEW085 16/10 Q1017
07:52 Parking Brakes off
08:03 Take-off
08:03 Take off Weight: 335636 Lbs
08:03 Wind: 355º @ 003 Knots Heading: 259º
08:03 POS N32º 00´ 59´´ E034º 52´ 47´´
08:03 Gear Up: 176 Knots
08:03 Flaps:2 at 176 Knots
08:04 Flaps:1 at 196 Knots
08:04 Flaps:0 at 211 Knots
08:18 Wind:266º@047 Knots Heading: 296º Ground Speed: 441 Knots Altitude 31633 ft
08:33 Wind:285º@056 Knots Heading: 291º Ground Speed: 418 Knots Altitude 33989 ft
08:48 Wind:287º@049 Knots Heading: 292º Ground Speed: 425 Knots Altitude 33979 ft
09:03 Wind:290º@048 Knots Heading: 291º Ground Speed: 422 Knots Altitude 33940 ft
09:18 Wind:292º@052 Knots Heading: 276º Ground Speed: 421 Knots Altitude 33933 ft
09:33 Wind:294º@060 Knots Heading: 280º Ground Speed: 413 Knots Altitude 33953 ft
09:48 Wind:293º@057 Knots Heading: 279º Ground Speed: 416 Knots Altitude 33937 ft
10:03 Wind:282º@066 Knots Heading: 297º Ground Speed: 408 Knots Altitude 33943 ft
10:17 TOC
10:17 Fuel Weight: 43911 Lb
10:18 Wind:288º@063 Knots Heading: 290º Ground Speed: 413 Knots Altitude 34829 ft
10:33 Wind:286º@060 Knots Heading: 288º Ground Speed: 414 Knots Altitude 34914 ft
10:48 Wind:285º@065 Knots Heading: 290º Ground Speed: 403 Knots Altitude 34960 ft
11:03 Wind:283º@059 Knots Heading: 289º Ground Speed: 412 Knots Altitude 34980 ft
11:18 Wind:279º@058 Knots Heading: 294º Ground Speed: 414 Knots Altitude 34944 ft
11:33 Wind:280º@059 Knots Heading: 273º Ground Speed: 412 Knots Altitude 34983 ft
11:48 Wind:270º@058 Knots Heading: 265º Ground Speed: 411 Knots Altitude 35075 ft
12:03 Wind:276º@053 Knots Heading: 296º Ground Speed: 420 Knots Altitude 36069 ft
12:18 Wind:306º@043 Knots Heading: 075º Ground Speed: 498 Knots Altitude 36066 ft
12:27 TOD
12:27 Fuel Weight: 22236 Lb
12:33 Wind:311º@035 Knots Heading: 268º Ground Speed: 380 Knots Altitude 19199 ft
12:43 Flaps:1 at 242 Knots
12:45 Flaps:2 at 220 Knots
12:45 Gear Down: 218 Knots
12:45 Flaps:3 at 195 Knots
12:46 Flaps:4 at 191 Knots
12:46 Flaps:5 at 186 Knots
12:46 Flaps:4 at 185 Knots
12:46 Flaps:5 at 184 Knots
12:46 Flaps:4 at 181 Knots
12:46 Flaps:5 at 180 Knots
12:46 Flaps:4 at 180 Knots
12:46 Flaps:5 at 178 Knots
12:46 Flaps:4 at 178 Knots
12:46 Flaps:5 at 178 Knots
12:46 Flaps:4 at 177 Knots
12:46 Flaps:5 at 176 Knots
12:46 Flaps:4 at 173 Knots
12:46 Flaps:6 at 170 Knots
12:46 TouchDown:Rate -129 ft/min Speed: 129 Knots
12:47 VATSIM:LEZG 011230Z 31013KT 280V350 9999 FEW035 21/09 Q1017
12:47 Land
12:47 Wind:320º@013 Knots
12:47 Heading: 300º
12:47 Flight Duration: 04:44
12:47 Landing Weight: 284751 Lbs
12:47 POS N41º 39´ 46´´ W001º 01´ 31´´
12:48 Parking brakes on
12:48 Block to Block Duration: 04:56
12:48 Final Fuel: 20588 Lbls
12:48 Spent Fuel: 53922 Lbls
12:48 Flight Length: 1927 NM
12:48 TOD Land Length: 104 NM

Exportar CSV

Powered by Drupal - Modified by Danger4k